createdAt,value
2022-12-29T00:01:21.903Z,1.60
2022-12-29T00:04:15.170Z,2.17
2022-12-29T00:07:05.318Z,1.70
2022-12-29T00:09:52.370Z,1.47
2022-12-29T00:12:57.916Z,1.50
2022-12-29T00:15:44.942Z,1.80
2022-12-29T00:18:31.921Z,1.50
2022-12-29T00:21:39.900Z,1.60
2022-12-29T00:24:26.899Z,1.60
2022-12-29T00:27:32.393Z,3.77
2022-12-29T00:30:42.586Z,2.73
2022-12-29T00:33:50.361Z,2.40
2022-12-29T00:36:41.816Z,2.23
2022-12-29T00:39:47.376Z,1.93
2022-12-29T00:42:52.955Z,2.10
2022-12-29T00:45:42.342Z,2.10
2022-12-29T00:48:48.101Z,2.60
2022-12-29T00:51:35.166Z,2.27
2022-12-29T00:54:22.570Z,2.50
2022-12-29T00:57:10.701Z,2.10
2022-12-29T00:59:57.680Z,1.77
2022-12-29T01:02:44.762Z,2.30
2022-12-29T01:05:31.858Z,2.10
2022-12-29T01:08:18.768Z,2.40
2022-12-29T01:11:15.541Z,2.20
2022-12-29T01:14:05.091Z,2.43
2022-12-29T01:16:52.479Z,3.23
2022-12-29T01:19:39.577Z,3.00
2022-12-29T01:22:26.615Z,3.70
2022-12-29T01:25:15.835Z,3.53
2022-12-29T01:28:02.945Z,3.40
2022-12-29T01:30:50.011Z,3.67
2022-12-29T01:33:36.973Z,3.13
2022-12-29T01:36:24.967Z,3.13
2022-12-29T01:39:12.090Z,2.93
2022-12-29T01:41:59.183Z,3.50
2022-12-29T01:44:54.242Z,3.97
2022-12-29T01:47:53.160Z,4.23
2022-12-29T01:50:44.671Z,4.03
2022-12-29T01:53:34.768Z,3.30
2022-12-29T01:56:22.573Z,3.37
2022-12-29T01:59:14.248Z,3.90
2022-12-29T02:02:02.739Z,3.27
2022-12-29T02:04:49.804Z,3.60
2022-12-29T02:07:38.874Z,3.13
2022-12-29T02:10:28.119Z,2.87
2022-12-29T02:13:20.675Z,3.33
2022-12-29T02:16:19.944Z,3.10
2022-12-29T02:19:15.986Z,3.37
2022-12-29T02:22:33.144Z,3.57
2022-12-29T02:25:47.353Z,3.63
2022-12-29T02:29:06.440Z,3.13
2022-12-29T02:32:06.054Z,3.43
2022-12-29T02:35:06.083Z,2.90
2022-12-29T02:38:39.312Z,2.57
2022-12-29T02:41:35.821Z,2.63
2022-12-29T02:44:35.307Z,1.90
2022-12-29T02:47:48.607Z,1.27
2022-12-29T02:50:44.386Z,1.60
2022-12-29T02:53:54.018Z,1.57
2022-12-29T02:56:41.033Z,1.10
2022-12-29T02:59:28.018Z,1.30
2022-12-29T03:02:49.123Z,1.60
2022-12-29T03:06:02.760Z,2.10
2022-12-29T03:08:54.666Z,1.50
2022-12-29T03:12:10.461Z,1.60
2022-12-29T03:15:27.767Z,1.60
2022-12-29T03:18:20.396Z,1.30
2022-12-29T03:21:20.572Z,1.07
2022-12-29T03:24:07.766Z,1.00
2022-12-29T03:27:02.171Z,0.80
2022-12-29T03:29:58.441Z,1.30
2022-12-29T03:32:50.076Z,1.07
2022-12-29T03:35:41.591Z,0.97
2022-12-29T03:38:38.952Z,0.80
2022-12-29T03:41:31.261Z,1.63
2022-12-29T03:44:19.765Z,1.23
2022-12-29T03:47:07.981Z,1.20
2022-12-29T03:49:55.558Z,1.20
2022-12-29T03:52:42.690Z,0.93
2022-12-29T03:55:29.944Z,1.07
2022-12-29T03:58:17.587Z,1.53
2022-12-29T04:01:31.502Z,1.03
2022-12-29T04:04:18.750Z,3.10
2022-12-29T04:07:06.900Z,1.63
2022-12-29T04:09:54.047Z,1.00
2022-12-29T04:12:44.331Z,0.90
2022-12-29T04:15:32.144Z,0.93
2022-12-29T04:18:20.043Z,0.90
2022-12-29T04:21:08.339Z,1.30
2022-12-29T04:23:58.753Z,0.90
2022-12-29T04:26:45.795Z,0.80
2022-12-29T04:29:50.460Z,0.93
2022-12-29T04:32:56.086Z,0.90
2022-12-29T04:35:44.208Z,1.03
2022-12-29T04:38:31.778Z,0.90
2022-12-29T04:41:20.671Z,0.70
2022-12-29T04:44:08.753Z,1.17
2022-12-29T04:47:13.025Z,1.40
2022-12-29T04:50:08.596Z,0.80
2022-12-29T04:53:04.912Z,1.03
2022-12-29T04:55:53.947Z,0.87
2022-12-29T04:58:42.330Z,0.83
2022-12-29T05:01:29.499Z,0.90
2022-12-29T05:04:16.680Z,0.90
2022-12-29T05:07:04.692Z,0.87
2022-12-29T05:09:51.880Z,0.90
2022-12-29T05:12:39.659Z,0.80
2022-12-29T05:15:27.892Z,0.90
2022-12-29T05:18:14.864Z,0.90
2022-12-29T05:21:01.968Z,0.93
2022-12-29T05:23:49.622Z,1.47
2022-12-29T05:26:36.735Z,0.70
2022-12-29T05:29:31.987Z,0.80
2022-12-29T05:32:19.021Z,0.63
2022-12-29T05:35:06.866Z,0.70
2022-12-29T05:37:54.668Z,0.80
2022-12-29T05:40:41.721Z,0.90
2022-12-29T05:43:40.863Z,0.60
2022-12-29T05:46:35.419Z,0.90
2022-12-29T05:49:31.673Z,0.67
2022-12-29T05:52:25.802Z,0.87
2022-12-29T05:55:13.932Z,1.80
2022-12-29T05:58:03.246Z,0.70
2022-12-29T06:00:50.355Z,1.37
2022-12-29T06:03:38.323Z,1.20
2022-12-29T06:06:28.003Z,0.70
2022-12-29T06:09:15.555Z,0.87
2022-12-29T06:12:03.435Z,0.90
2022-12-29T06:14:50.526Z,0.90
2022-12-29T06:17:37.497Z,0.97
2022-12-29T06:20:24.844Z,1.00
2022-12-29T06:23:15.921Z,1.00
2022-12-29T06:26:03.150Z,1.30
2022-12-29T06:28:50.199Z,3.47
2022-12-29T06:31:37.194Z,1.73
2022-12-29T06:34:25.764Z,1.50
2022-12-29T06:37:13.105Z,1.50
2022-12-29T06:40:00.859Z,2.07
2022-12-29T06:42:56.781Z,2.10
2022-12-29T06:45:58.340Z,2.00
2022-12-29T06:48:45.722Z,1.40
2022-12-29T06:51:32.712Z,1.63
2022-12-29T06:54:19.795Z,1.60
2022-12-29T06:57:07.029Z,1.77
2022-12-29T06:59:56.700Z,2.00
2022-12-29T07:02:43.890Z,1.63
2022-12-29T07:05:32.546Z,1.37
2022-12-29T07:08:19.591Z,1.23
2022-12-29T07:11:06.659Z,1.40
2022-12-29T07:13:53.761Z,1.30
2022-12-29T07:16:40.848Z,1.30
2022-12-29T07:19:27.837Z,1.30
2022-12-29T07:22:14.875Z,1.20
2022-12-29T07:25:02.012Z,1.30
2022-12-29T07:27:49.608Z,1.20
2022-12-29T07:30:37.909Z,1.50
2022-12-29T07:33:25.081Z,1.80
2022-12-29T07:36:13.145Z,1.40
2022-12-29T07:39:00.132Z,1.90
2022-12-29T07:41:47.129Z,1.87
2022-12-29T07:44:38.261Z,2.33
2022-12-29T07:47:41.790Z,2.07
2022-12-29T07:50:29.351Z,2.57
2022-12-29T07:53:16.397Z,2.70
2022-12-29T07:56:03.616Z,2.60
2022-12-29T07:58:50.618Z,3.03
2022-12-29T08:01:37.784Z,3.17
2022-12-29T08:04:24.992Z,3.07
2022-12-29T08:07:11.998Z,3.10
2022-12-29T08:09:59.018Z,3.40
2022-12-29T08:12:46.052Z,3.77
2022-12-29T08:15:33.000Z,3.47
2022-12-29T08:18:20.060Z,3.73
2022-12-29T08:21:07.249Z,3.57
2022-12-29T08:23:54.229Z,3.73
2022-12-29T08:26:41.308Z,3.17
2022-12-29T08:29:28.497Z,3.60
2022-12-29T08:32:16.238Z,3.80
2022-12-29T08:35:03.414Z,3.90
2022-12-29T08:37:50.410Z,3.80
2022-12-29T08:40:37.444Z,4.70
2022-12-29T08:43:25.448Z,4.90
2022-12-29T08:46:12.427Z,4.60
2022-12-29T08:48:59.706Z,3.93
2022-12-29T08:51:46.712Z,3.63
2022-12-29T08:54:33.689Z,7.10
2022-12-29T08:57:20.759Z,7.40
2022-12-29T09:00:22.796Z,7.80
2022-12-29T09:03:10.429Z,7.00
2022-12-29T09:05:57.610Z,6.63
2022-12-29T09:08:45.307Z,5.80
2022-12-29T09:11:32.323Z,5.47
2022-12-29T09:14:19.469Z,4.40
2022-12-29T09:17:25.017Z,4.67
2022-12-29T09:20:14.843Z,3.30
2022-12-29T09:23:02.685Z,2.80
2022-12-29T09:25:49.754Z,2.13
2022-12-29T09:28:37.725Z,1.80
2022-12-29T09:31:26.076Z,2.53
2022-12-29T09:34:13.125Z,1.73
2022-12-29T09:37:00.128Z,1.20
2022-12-29T09:39:53.949Z,1.73
2022-12-29T09:43:13.657Z,1.40
2022-12-29T09:46:12.807Z,1.67
2022-12-29T09:49:24.484Z,1.30
2022-12-29T09:52:16.587Z,1.10
2022-12-29T09:55:12.128Z,1.73
2022-12-29T09:58:06.437Z,1.67
2022-12-29T10:01:01.063Z,0.97
2022-12-29T10:03:52.566Z,1.27
2022-12-29T10:07:19.392Z,2.10
2022-12-29T10:10:04.028Z,2.03
2022-12-29T10:13:09.790Z,1.43
2022-12-29T10:16:12.693Z,1.03
2022-12-29T10:19:32.747Z,0.90
2022-12-29T10:22:32.063Z,0.97
2022-12-29T10:25:21.633Z,1.10
2022-12-29T10:28:25.016Z,0.97
2022-12-29T10:31:21.941Z,0.70
2022-12-29T10:34:37.707Z,3.57
2022-12-29T10:37:44.163Z,1.20
2022-12-29T10:40:39.590Z,1.40
2022-12-29T10:43:32.112Z,1.13
2022-12-29T10:46:26.297Z,1.40
2022-12-29T10:49:21.783Z,1.13
2022-12-29T10:52:13.104Z,1.30
2022-12-29T10:55:14.453Z,1.93
2022-12-29T10:58:05.799Z,1.20
2022-12-29T11:00:54.881Z,1.10
2022-12-29T11:03:51.463Z,3.40
2022-12-29T11:06:38.828Z,2.27
2022-12-29T11:09:42.003Z,1.40
2022-12-29T11:12:31.672Z,1.33
2022-12-29T11:15:18.819Z,1.07
2022-12-29T11:18:05.905Z,1.70
2022-12-29T11:21:01.445Z,1.17
2022-12-29T11:23:58.547Z,1.30
2022-12-29T11:26:46.117Z,0.90
2022-12-29T11:29:40.366Z,2.00
2022-12-29T11:32:32.739Z,1.37
2022-12-29T11:35:39.719Z,1.20
2022-12-29T11:38:37.199Z,1.30
2022-12-29T11:41:28.645Z,0.90
2022-12-29T11:44:15.730Z,1.00
2022-12-29T11:47:02.912Z,1.23
2022-12-29T11:49:53.385Z,0.63
2022-12-29T11:52:40.583Z,1.27
2022-12-29T11:55:29.468Z,1.30
2022-12-29T11:58:17.092Z,1.03
2022-12-29T12:01:30.665Z,1.10
2022-12-29T12:04:22.442Z,0.80
2022-12-29T12:07:21.892Z,0.70
2022-12-29T12:10:25.873Z,1.13
2022-12-29T12:13:25.920Z,1.57
2022-12-29T12:16:44.791Z,0.87
2022-12-29T12:19:39.701Z,0.80
2022-12-29T12:22:38.243Z,1.43
2022-12-29T12:25:35.160Z,0.90
2022-12-29T12:28:36.426Z,0.97
2022-12-29T12:31:46.909Z,1.50
2022-12-29T12:34:40.317Z,0.80
2022-12-29T12:38:22.747Z,0.60
2022-12-29T12:41:26.837Z,0.70
2022-12-29T12:44:42.686Z,0.80
2022-12-29T12:47:38.697Z,1.50
2022-12-29T12:50:40.489Z,1.50
2022-12-29T12:53:37.004Z,1.00
2022-12-29T12:56:56.854Z,1.00
2022-12-29T13:00:06.256Z,1.07
2022-12-29T13:03:23.148Z,1.43
2022-12-29T13:06:34.466Z,1.33
2022-12-29T13:09:24.091Z,1.30
2022-12-29T13:12:39.683Z,1.00
2022-12-29T13:16:04.001Z,0.80
2022-12-29T13:19:04.735Z,0.80
2022-12-29T13:22:06.929Z,1.23
2022-12-29T13:25:00.223Z,1.47
2022-12-29T13:28:05.872Z,1.30
2022-12-29T13:31:00.569Z,1.00
2022-12-29T13:34:02.745Z,2.40
2022-12-29T13:36:55.813Z,4.17
2022-12-29T13:39:50.318Z,7.30
2022-12-29T13:42:37.794Z,5.13
2022-12-29T13:45:27.403Z,2.37
2022-12-29T13:48:21.050Z,7.00
2022-12-29T13:51:10.391Z,3.73
2022-12-29T13:54:34.654Z,2.87
2022-12-29T13:57:48.900Z,2.00
2022-12-29T14:00:51.801Z,0.97
2022-12-29T14:03:54.807Z,1.33
2022-12-29T14:06:43.316Z,3.00
2022-12-29T14:09:52.312Z,1.63
2022-12-29T14:12:44.427Z,1.80
2022-12-29T14:15:31.639Z,2.40
2022-12-29T14:18:24.596Z,2.10
2022-12-29T14:21:14.538Z,0.97
2022-12-29T14:24:28.378Z,0.80
2022-12-29T14:27:15.354Z,2.73
2022-12-29T14:30:02.400Z,1.10
2022-12-29T14:33:03.514Z,1.93
2022-12-29T14:35:53.095Z,1.03
2022-12-29T14:38:46.813Z,0.80
2022-12-29T14:41:40.076Z,1.17
2022-12-29T14:44:27.539Z,1.40
2022-12-29T14:47:28.185Z,0.90
2022-12-29T14:50:23.329Z,1.23
2022-12-29T14:53:49.682Z,1.00
2022-12-29T14:56:40.990Z,2.43
2022-12-29T14:59:30.086Z,0.70
2022-12-29T15:02:22.465Z,0.60
2022-12-29T15:05:32.804Z,0.70
2022-12-29T15:08:29.219Z,0.80
2022-12-29T15:11:20.906Z,1.90
2022-12-29T15:14:26.787Z,0.87
2022-12-29T15:17:35.683Z,1.63
2022-12-29T15:20:31.007Z,0.80
2022-12-29T15:23:18.417Z,1.40
2022-12-29T15:26:07.727Z,0.93
2022-12-29T15:28:55.662Z,1.00
2022-12-29T15:31:49.790Z,0.90
2022-12-29T15:34:36.910Z,2.37
2022-12-29T15:37:26.467Z,0.90
2022-12-29T15:40:25.299Z,0.83
2022-12-29T15:43:44.879Z,1.00
2022-12-29T15:46:34.083Z,1.17
2022-12-29T15:49:22.061Z,1.10
2022-12-29T15:52:12.028Z,1.00
2022-12-29T15:54:59.768Z,1.10
2022-12-29T15:57:46.742Z,2.47
2022-12-29T16:00:38.260Z,2.40
2022-12-29T16:03:33.733Z,2.93
2022-12-29T16:06:38.404Z,3.50
2022-12-29T16:09:43.857Z,5.30
2022-12-29T16:12:35.058Z,4.33
2022-12-29T16:15:22.393Z,3.97
2022-12-29T16:18:26.235Z,5.33
2022-12-29T16:21:20.333Z,9.93
2022-12-29T16:24:14.650Z,6.77
2022-12-29T16:27:15.132Z,6.77
2022-12-29T16:30:06.888Z,4.10
2022-12-29T16:32:57.397Z,3.13
2022-12-29T16:35:44.339Z,1.83
2022-12-29T16:38:34.526Z,1.50
2022-12-29T16:41:31.914Z,1.83
2022-12-29T16:44:31.064Z,2.07
2022-12-29T16:47:21.561Z,1.60
2022-12-29T16:50:17.615Z,1.43
2022-12-29T16:53:06.100Z,1.70
2022-12-29T16:55:54.497Z,1.20
2022-12-29T16:58:44.396Z,1.53
2022-12-29T17:01:39.564Z,1.10
2022-12-29T17:04:26.591Z,0.90
2022-12-29T17:07:21.768Z,1.40
2022-12-29T17:10:08.994Z,0.90
2022-12-29T17:12:55.938Z,1.00
2022-12-29T17:15:43.086Z,0.90
2022-12-29T17:18:30.165Z,0.90
2022-12-29T17:21:17.119Z,1.17
2022-12-29T17:24:05.641Z,1.00
2022-12-29T17:26:56.162Z,1.23
2022-12-29T17:29:43.481Z,0.97
2022-12-29T17:32:31.345Z,1.10
2022-12-29T17:35:20.977Z,1.23
2022-12-29T17:38:31.855Z,0.90
2022-12-29T17:41:18.806Z,1.47
2022-12-29T17:44:07.825Z,1.00
2022-12-29T17:46:54.783Z,1.10
2022-12-29T17:49:45.966Z,1.00
2022-12-29T17:52:33.119Z,0.80
2022-12-29T17:55:21.824Z,0.70
2022-12-29T17:58:19.275Z,1.00
2022-12-29T18:01:06.884Z,0.90
2022-12-29T18:03:53.912Z,0.93
2022-12-29T18:06:42.120Z,1.40
2022-12-29T18:09:29.059Z,0.87
2022-12-29T18:12:31.036Z,0.83
2022-12-29T18:15:29.556Z,2.50
2022-12-29T18:18:19.797Z,1.67
2022-12-29T18:21:06.948Z,1.37
2022-12-29T18:23:54.020Z,1.00
2022-12-29T18:26:40.965Z,1.40
2022-12-29T18:29:27.915Z,1.10
2022-12-29T18:32:15.890Z,2.10
2022-12-29T18:35:02.826Z,1.43
2022-12-29T18:37:49.751Z,1.80
2022-12-29T18:40:37.256Z,1.00
2022-12-29T18:43:24.891Z,1.10
2022-12-29T18:46:17.244Z,1.20
2022-12-29T18:49:07.507Z,1.80
2022-12-29T18:51:54.640Z,1.07
2022-12-29T18:54:41.682Z,1.37
2022-12-29T18:57:30.576Z,1.23
2022-12-29T19:00:19.859Z,0.90
2022-12-29T19:03:06.895Z,1.40
2022-12-29T19:05:53.864Z,0.90
2022-12-29T19:08:40.803Z,0.93
2022-12-29T19:11:27.724Z,1.13
2022-12-29T19:14:16.784Z,1.33
2022-12-29T19:17:03.730Z,1.53
2022-12-29T19:19:50.657Z,0.93
2022-12-29T19:22:37.566Z,1.13
2022-12-29T19:25:25.146Z,1.03
2022-12-29T19:28:38.268Z,1.00
2022-12-29T19:31:25.296Z,2.23
2022-12-29T19:34:14.991Z,1.17
2022-12-29T19:37:01.984Z,1.33
2022-12-29T19:39:48.963Z,1.20
2022-12-29T19:42:36.514Z,1.20
2022-12-29T19:45:23.835Z,1.20
2022-12-29T19:48:20.081Z,1.27
2022-12-29T19:51:09.622Z,1.10
2022-12-29T19:53:58.441Z,0.80
2022-12-29T19:56:45.509Z,1.50
2022-12-29T19:59:32.528Z,1.03
2022-12-29T20:02:26.078Z,1.00
2022-12-29T20:05:13.110Z,1.27
2022-12-29T20:08:00.132Z,0.80
2022-12-29T20:10:57.601Z,2.23
2022-12-29T20:13:45.324Z,1.20
2022-12-29T20:16:32.262Z,1.30
2022-12-29T20:19:19.270Z,1.23
2022-12-29T20:22:08.267Z,1.63
2022-12-29T20:25:18.270Z,4.63
2022-12-29T20:28:02.188Z,4.77
2022-12-29T20:31:07.264Z,4.60
2022-12-29T20:33:54.762Z,3.13
2022-12-29T20:36:44.922Z,2.10
2022-12-29T20:39:32.072Z,1.33
2022-12-29T20:42:19.061Z,1.20
2022-12-29T20:45:06.486Z,1.10
2022-12-29T20:47:54.645Z,0.90
2022-12-29T20:50:41.573Z,1.53
2022-12-29T20:53:30.657Z,1.53
2022-12-29T20:56:21.137Z,2.23
2022-12-29T20:59:26.919Z,3.17
2022-12-29T21:02:22.708Z,2.83
2022-12-29T21:05:25.871Z,3.60
2022-12-29T21:08:12.987Z,2.93
2022-12-29T21:11:00.297Z,2.03
2022-12-29T21:13:47.947Z,1.70
2022-12-29T21:16:35.024Z,2.23
2022-12-29T21:19:22.368Z,1.93
2022-12-29T21:22:09.290Z,1.70
2022-12-29T21:24:56.409Z,2.17
2022-12-29T21:27:44.196Z,2.90
2022-12-29T21:30:31.370Z,1.60
2022-12-29T21:33:20.126Z,1.70
2022-12-29T21:36:08.453Z,1.80
2022-12-29T21:38:56.019Z,1.90
2022-12-29T21:41:44.144Z,1.53
2022-12-29T21:44:49.711Z,2.00
2022-12-29T21:47:55.303Z,1.63
2022-12-29T21:51:03.049Z,1.80
2022-12-29T21:53:56.085Z,1.90
2022-12-29T21:56:45.664Z,1.90
2022-12-29T21:59:51.663Z,1.57
2022-12-29T22:02:57.269Z,2.00
2022-12-29T22:06:02.985Z,1.57
2022-12-29T22:09:08.627Z,1.63
2022-12-29T22:12:14.176Z,1.50
2022-12-29T22:15:01.077Z,1.73
2022-12-29T22:17:51.223Z,1.60
2022-12-29T22:20:38.184Z,1.70
2022-12-29T22:23:25.264Z,1.80
2022-12-29T22:26:14.107Z,1.97
2022-12-29T22:29:01.253Z,1.70
2022-12-29T22:31:48.171Z,2.47
2022-12-29T22:34:35.152Z,3.67
2022-12-29T22:37:22.148Z,2.40
2022-12-29T22:40:11.049Z,2.53
2022-12-29T22:42:58.011Z,2.50
2022-12-29T22:45:44.956Z,2.63
2022-12-29T22:48:33.191Z,2.37
2022-12-29T22:51:20.163Z,2.73
2022-12-29T22:54:07.164Z,2.80
2022-12-29T22:56:54.177Z,3.07
2022-12-29T22:59:41.091Z,2.80
2022-12-29T23:02:28.512Z,2.73
2022-12-29T23:05:16.037Z,2.27
2022-12-29T23:08:02.999Z,1.90
2022-12-29T23:10:49.979Z,2.07
2022-12-29T23:13:37.422Z,1.93
2022-12-29T23:16:24.759Z,2.73
2022-12-29T23:19:13.357Z,2.53
2022-12-29T23:22:00.355Z,1.80
2022-12-29T23:24:47.259Z,1.70
2022-12-29T23:27:34.196Z,1.93
2022-12-29T23:30:21.142Z,1.80
2022-12-29T23:33:08.059Z,1.47
2022-12-29T23:35:55.146Z,1.47
2022-12-29T23:38:42.366Z,1.30
2022-12-29T23:41:29.337Z,1.50
2022-12-29T23:44:16.330Z,1.57
2022-12-29T23:47:03.387Z,1.10
2022-12-29T23:49:50.390Z,1.23
2022-12-29T23:52:37.327Z,1.20
2022-12-29T23:55:24.268Z,1.00
2022-12-29T23:58:11.525Z,0.80
